Time;durP1;ratioP1;P1;durP2;ratioP2;P2;SDS_P1;SDS_P2;PMS_P1;PMS_P2;Temp;Humidity;BMP_temperature;BMP_pressure;BME280_temperature;BME280_humidity;BME280_pressure;Samples;Min_cycle;Max_cycle;Signal;HPM_P1;HPM_P2
2022/10/21 00:00:25;;;;;;;23.73;12.10;;;;;;;;;;4992640;28;20036;-75
2022/10/21 00:02:50;;;;;;;22.97;11.97;;;;;;;;;;4975204;28;20034;-74
2022/10/21 00:05:16;;;;;;;23.73;12.00;;;;;;;;;;4992474;28;20076;-74
2022/10/21 00:07:41;;;;;;;22.90;13.13;;;;;;;;;;4974959;28;20066;-75
2022/10/21 00:10:08;;;;;;;23.27;12.43;;;;;;;;;;4992266;28;20430;-74
2022/10/21 00:12:34;;;;;;;24.53;11.97;;;;;;;;;;4974467;28;20048;-74
2022/10/21 00:15:00;;;;;;;25.40;12.30;;;;;;;;;;4974683;28;20049;-74
2022/10/21 00:17:26;;;;;;;25.20;13.00;;;;;;;;;;4974547;28;20037;-75
2022/10/21 00:19:51;;;;;;;26.03;12.63;;;;;;;;;;4974472;28;20554;-75
2022/10/21 00:22:17;;;;;;;24.87;13.83;;;;;;;;;;4974359;28;20045;-74
2022/10/21 00:24:42;;;;;;;26.90;14.43;;;;;;;;;;4973992;28;20042;-75
2022/10/21 00:27:08;;;;;;;29.83;13.73;;;;;;;;;;4973588;28;20038;-75
2022/10/21 00:29:33;;;;;;;25.17;12.47;;;;;;;;;;4991423;28;20671;-74
2022/10/21 00:31:59;;;;;;;32.17;13.93;;;;;;;;;;4973740;28;20418;-74
2022/10/21 00:34:24;;;;;;;29.63;12.47;;;;;;;;;;4974032;28;20129;-74
2022/10/21 00:36:50;;;;;;;26.50;13.33;;;;;;;;;;4974178;28;20034;-74
2022/10/21 00:39:15;;;;;;;26.50;11.90;;;;;;;;;;4974101;28;20076;-74
2022/10/21 00:41:41;;;;;;;24.70;12.57;;;;;;;;;;4991845;28;20566;-74
2022/10/21 00:44:11;;;;;;;24.23;13.27;;;;;;;;;;4991708;28;20019;-74
2022/10/21 00:46:42;;;;;;;22.40;10.90;;;;;;;;;;4974055;28;20029;-74
2022/10/21 00:49:16;;;;;;;21.53;11.93;;;;;;;;;;4973461;28;20383;-74
2022/10/21 00:51:45;;;;;;;24.33;12.90;;;;;;;;;;4973909;28;20336;-75
2022/10/21 00:54:10;;;;;;;28.03;11.93;;;;;;;;;;4974262;28;20022;-74
2022/10/21 00:56:40;;;;;;;26.10;13.00;;;;;;;;;;4973827;28;20045;-74
2022/10/21 00:59:06;;;;;;;24.03;12.67;;;;;;;;;;4991593;28;20026;-74
2022/10/21 01:01:31;;;;;;;27.20;12.70;;;;;;;;;;4973500;28;20022;-73
2022/10/21 01:03:57;;;;;;;22.00;12.03;;;;;;;;;;4973955;28;20057;-73
2022/10/21 01:06:24;;;;;;;28.57;14.23;;;;;;;;;;4991098;28;20038;-74
2022/10/21 01:08:51;;;;;;;25.77;12.40;;;;;;;;;;4991432;28;20042;-74
2022/10/21 01:11:18;;;;;;;25.37;12.53;;;;;;;;;;4991010;28;20396;-74
2022/10/21 01:13:50;;;;;;;24.70;12.27;;;;;;;;;;4973597;28;20034;-73
2022/10/21 01:16:46;;;;;;;25.58;11.75;;;;;;;;;;4973278;28;20026;-74
2022/10/21 01:19:49;;;;;;;20.83;12.33;;;;;;;;;;4991041;28;20026;-73
2022/10/21 01:22:52;;;;;;;24.37;12.63;;;;;;;;;;4973470;28;20034;-74
2022/10/21 01:25:48;;;;;;;25.90;12.47;;;;;;;;;;4962297;28;20121;-74
2022/10/21 01:28:41;;;;;;;27.50;13.03;;;;;;;;;;4952476;28;20400;-75
2022/10/21 01:31:17;;;;;;;22.30;12.03;;;;;;;;;;4951166;29;20027;-73
2022/10/21 01:34:20;;;;;;;28.53;15.10;;;;;;;;;;4953237;28;20081;-74
2022/10/21 01:36:53;;;;;;;29.95;12.75;;;;;;;;;;4952828;29;20038;-74
2022/10/21 01:39:31;;;;;;;27.97;13.67;;;;;;;;;;4950956;29;20045;-74
2022/10/21 01:42:11;;;;;;;24.17;12.63;;;;;;;;;;4951367;29;20030;-74
2022/10/21 01:44:50;;;;;;;23.65;12.48;;;;;;;;;;4952492;28;20105;-74
2022/10/21 01:47:45;;;;;;;28.07;13.20;;;;;;;;;;4952308;28;20031;-75
2022/10/21 01:50:18;;;;;;;19.97;12.13;;;;;;;;;;4949211;29;20035;-74
2022/10/21 01:52:48;;;;;;;22.80;13.23;;;;;;;;;;4950933;29;20043;-74
2022/10/21 01:55:18;;;;;;;30.80;13.17;;;;;;;;;;4952224;28;20104;-74
2022/10/21 01:57:49;;;;;;;22.17;12.20;;;;;;;;;;4950736;29;20797;-74
2022/10/21 02:00:15;;;;;;;26.02;13.45;;;;;;;;;;4950613;28;20504;-75
2022/10/21 02:02:46;;;;;;;21.27;12.20;;;;;;;;;;4951427;29;20695;-74
2022/10/21 02:05:16;;;;;;;24.23;12.32;;;;;;;;;;4952207;28;20640;-74
2022/10/21 02:07:42;;;;;;;26.03;12.70;;;;;;;;;;4950531;29;20376;-74
2022/10/21 02:10:08;;;;;;;22.15;12.63;;;;;;;;;;4952020;28;20130;-74
2022/10/21 02:12:35;;;;;;;26.27;12.40;;;;;;;;;;4950560;29;20039;-74
2022/10/21 02:15:04;;;;;;;27.37;13.23;;;;;;;;;;4952189;28;20042;-73
2022/10/21 02:17:30;;;;;;;25.48;13.23;;;;;;;;;;4950377;29;20715;-73
2022/10/21 02:20:00;;;;;;;27.02;13.13;;;;;;;;;;4950500;29;20063;-74
2022/10/21 02:22:26;;;;;;;26.40;13.25;;;;;;;;;;4951802;28;20031;-74
2022/10/21 02:24:54;;;;;;;24.97;13.20;;;;;;;;;;4958110;28;20147;-74
2022/10/21 02:27:20;;;;;;;26.73;12.90;;;;;;;;;;4969802;28;20026;-75
2022/10/21 02:29:48;;;;;;;24.77;13.00;;;;;;;;;;4969875;28;20114;-74
2022/10/21 02:32:27;;;;;;;34.47;14.47;;;;;;;;;;4969715;28;20082;-73
2022/10/21 02:35:13;;;;;;;22.87;13.33;;;;;;;;;;4971090;28;20420;-75
2022/10/21 02:38:23;;;;;;;28.83;13.70;;;;;;;;;;4962218;28;20034;-74
2022/10/21 02:40:55;;;;;;;30.20;13.23;;;;;;;;;;4962428;28;20120;-74
2022/10/21 02:43:29;;;;;;;28.43;13.53;;;;;;;;;;4970782;28;20531;-74
2022/10/21 02:46:00;;;;;;;34.33;14.23;;;;;;;;;;4969559;28;20037;-74
2022/10/21 02:48:25;;;;;;;28.27;13.30;;;;;;;;;;4969193;28;20464;-75
2022/10/21 02:50:51;;;;;;;30.40;13.73;;;;;;;;;;4970827;28;20061;-73
2022/10/21 02:53:17;;;;;;;24.17;13.73;;;;;;;;;;4970957;28;20455;-74
2022/10/21 02:55:42;;;;;;;27.23;14.43;;;;;;;;;;4970801;28;20030;-74
2022/10/21 02:58:08;;;;;;;24.35;14.15;;;;;;;;;;4969437;28;20032;-75
2022/10/21 03:00:33;;;;;;;28.97;13.83;;;;;;;;;;4969178;28;20049;-74
2022/10/21 03:02:59;;;;;;;25.40;14.23;;;;;;;;;;4970818;28;20030;-75
2022/10/21 03:05:25;;;;;;;25.83;12.85;;;;;;;;;;4970707;28;20515;-74
2022/10/21 03:07:50;;;;;;;26.73;13.60;;;;;;;;;;4970669;28;20111;-74
2022/10/21 03:10:16;;;;;;;31.58;15.25;;;;;;;;;;4969402;28;20041;-75
2022/10/21 03:12:41;;;;;;;37.00;15.77;;;;;;;;;;4968914;28;20037;-76
2022/10/21 03:15:07;;;;;;;37.23;14.33;;;;;;;;;;4972689;28;20379;-77
2022/10/21 03:17:33;;;;;;;39.50;14.73;;;;;;;;;;4973811;28;20106;-77
2022/10/21 03:19:58;;;;;;;29.65;14.35;;;;;;;;;;4972469;28;20037;-77
2022/10/21 03:22:24;;;;;;;26.63;13.50;;;;;;;;;;4973213;28;20483;-77
2022/10/21 03:24:49;;;;;;;26.13;14.97;;;;;;;;;;4980947;28;20069;-77
2022/10/21 03:27:14;;;;;;;46.23;16.60;;;;;;;;;;4975797;28;20135;-78
2022/10/21 03:29:40;;;;;;;27.67;14.48;;;;;;;;;;4993765;28;20141;-78
2022/10/21 03:32:05;;;;;;;36.10;15.43;;;;;;;;;;4976094;28;20054;-78
2022/10/21 03:34:31;;;;;;;34.57;15.53;;;;;;;;;;4993701;28;20109;-77
2022/10/21 03:36:56;;;;;;;30.40;15.47;;;;;;;;;;4976259;28;20429;-78
2022/10/21 03:39:22;;;;;;;24.50;13.93;;;;;;;;;;4975606;28;20030;-77
2022/10/21 03:41:47;;;;;;;45.17;18.27;;;;;;;;;;4975910;28;20070;-77
2022/10/21 03:44:13;;;;;;;34.20;15.87;;;;;;;;;;4975831;28;20034;-77
2022/10/21 03:46:38;;;;;;;27.93;15.13;;;;;;;;;;4975629;28;20109;-76
2022/10/21 03:49:03;;;;;;;27.07;13.47;;;;;;;;;;4975509;28;20023;-77
2022/10/21 03:51:29;;;;;;;24.88;13.70;;;;;;;;;;4975177;28;20089;-77
2022/10/21 03:53:54;;;;;;;28.17;14.25;;;;;;;;;;4992921;28;20084;-77
2022/10/21 03:56:20;;;;;;;36.17;14.03;;;;;;;;;;4975320;28;20045;-76
2022/10/21 03:58:45;;;;;;;28.48;14.13;;;;;;;;;;4975029;28;20467;-77
2022/10/21 04:01:12;;;;;;;26.02;13.48;;;;;;;;;;4975199;28;20034;-78
2022/10/21 04:03:37;;;;;;;30.43;15.87;;;;;;;;;;4974885;28;20026;-76
2022/10/21 04:06:03;;;;;;;30.67;15.23;;;;;;;;;;4975524;28;20288;-77
2022/10/21 04:08:28;;;;;;;31.88;15.30;;;;;;;;;;4975220;28;20040;-77
2022/10/21 04:10:56;;;;;;;30.63;15.70;;;;;;;;;;4975592;28;20026;-78
2022/10/21 04:13:22;;;;;;;31.60;14.50;;;;;;;;;;4975075;28;20105;-77
2022/10/21 04:15:47;;;;;;;27.63;14.00;;;;;;;;;;4974802;28;20125;-76
2022/10/21 04:18:13;;;;;;;23.10;13.33;;;;;;;;;;4992419;28;20022;-78
2022/10/21 04:20:38;;;;;;;28.97;15.33;;;;;;;;;;4992395;28;20042;-77
2022/10/21 04:23:04;;;;;;;25.70;12.20;;;;;;;;;;4974932;28;20022;-77
2022/10/21 04:25:29;;;;;;;25.10;12.70;;;;;;;;;;4974120;28;20092;-77
2022/10/21 04:27:55;;;;;;;33.37;15.23;;;;;;;;;;4992367;28;20022;-77
2022/10/21 04:30:20;;;;;;;27.90;13.82;;;;;;;;;;4992317;28;20053;-77
2022/10/21 04:32:46;;;;;;;25.33;12.75;;;;;;;;;;4992020;28;20439;-77
2022/10/21 04:35:11;;;;;;;26.30;13.17;;;;;;;;;;4974509;28;20033;-77
2022/10/21 04:37:39;;;;;;;33.90;13.50;;;;;;;;;;4974298;28;20489;-78
2022/10/21 04:40:06;;;;;;;28.88;13.70;;;;;;;;;;4973194;28;20031;-76
2022/10/21 04:42:32;;;;;;;26.02;13.20;;;;;;;;;;4974107;28;20470;-78
2022/10/21 04:44:57;;;;;;;27.13;14.32;;;;;;;;;;4974379;28;20034;-77
2022/10/21 04:47:23;;;;;;;28.50;13.57;;;;;;;;;;4974034;28;20038;-78
2022/10/21 04:49:48;;;;;;;28.23;13.83;;;;;;;;;;4973767;28;20056;-77
2022/10/21 04:52:14;;;;;;;23.63;12.60;;;;;;;;;;4974251;28;20467;-76
2022/10/21 04:54:39;;;;;;;29.48;13.27;;;;;;;;;;4973682;28;20030;-77
2022/10/21 04:57:04;;;;;;;23.73;13.23;;;;;;;;;;4974269;28;20030;-78
2022/10/21 04:59:30;;;;;;;27.65;13.27;;;;;;;;;;4991325;28;20030;-77
2022/10/21 05:01:55;;;;;;;32.23;15.17;;;;;;;;;;4974086;28;20022;-77
2022/10/21 05:04:21;;;;;;;26.25;15.35;;;;;;;;;;4991304;28;20088;-78
2022/10/21 05:06:48;;;;;;;29.73;15.23;;;;;;;;;;4973912;28;20072;-78
2022/10/21 05:09:13;;;;;;;31.40;14.60;;;;;;;;;;4991798;28;20104;-76
2022/10/21 05:11:39;;;;;;;24.50;13.15;;;;;;;;;;4973376;28;20038;-79
2022/10/21 05:14:04;;;;;;;29.27;14.23;;;;;;;;;;4973905;28;20117;-79
2022/10/21 05:16:30;;;;;;;24.73;13.03;;;;;;;;;;4991724;28;20442;-78
2022/10/21 05:18:55;;;;;;;31.87;15.73;;;;;;;;;;4969705;28;21207;-80
2022/10/21 05:21:21;;;;;;;25.97;14.20;;;;;;;;;;4986433;28;20084;-80
2022/10/21 05:23:46;;;;;;;26.50;13.43;;;;;;;;;;4973399;28;20034;-78
2022/10/21 05:26:12;;;;;;;39.27;15.23;;;;;;;;;;4970076;28;20073;-79
2022/10/21 05:28:37;;;;;;;26.57;13.17;;;;;;;;;;4975235;28;20030;-77
2022/10/21 05:31:03;;;;;;;31.45;15.18;;;;;;;;;;4972965;28;20026;-74
2022/10/21 05:33:28;;;;;;;27.13;13.23;;;;;;;;;;4961317;28;20027;-76
2022/10/21 05:36:03;;;;;;;27.73;14.77;;;;;;;;;;4952709;28;20031;-75
2022/10/21 05:38:30;;;;;;;33.60;17.80;;;;;;;;;;4969612;28;20031;-77
2022/10/21 05:40:56;;;;;;;35.40;15.07;;;;;;;;;;4953912;28;20160;-76
2022/10/21 05:43:23;;;;;;;42.60;15.30;;;;;;;;;;4969475;28;20114;-75
2022/10/21 05:45:48;;;;;;;27.20;14.40;;;;;;;;;;4972390;28;20031;-76
2022/10/21 05:48:17;;;;;;;24.75;13.98;;;;;;;;;;4970323;28;20031;-75
2022/10/21 05:50:44;;;;;;;30.58;15.07;;;;;;;;;;4982540;28;20030;-77
2022/10/21 05:53:09;;;;;;;34.55;16.17;;;;;;;;;;4988533;28;20121;-77
2022/10/21 05:55:34;;;;;;;28.53;14.20;;;;;;;;;;4975777;28;20125;-77
2022/10/21 05:58:00;;;;;;;29.73;14.33;;;;;;;;;;4969595;28;20089;-76
2022/10/21 06:00:25;;;;;;;39.20;16.20;;;;;;;;;;4970610;28;20039;-76
2022/10/21 06:02:51;;;;;;;34.08;16.52;;;;;;;;;;4970408;28;20035;-76
2022/10/21 06:05:16;;;;;;;32.67;16.53;;;;;;;;;;4968907;28;20026;-76
2022/10/21 06:07:42;;;;;;;34.67;16.07;;;;;;;;;;4957120;28;20117;-76
2022/10/21 06:10:08;;;;;;;32.63;16.67;;;;;;;;;;4968454;28;20058;-76
2022/10/21 06:12:34;;;;;;;38.63;17.00;;;;;;;;;;4965694;28;20381;-77
2022/10/21 06:14:59;;;;;;;32.10;16.63;;;;;;;;;;4970198;28;20472;-76
2022/10/21 06:17:24;;;;;;;32.60;15.17;;;;;;;;;;4967904;28;20034;-76
2022/10/21 06:19:50;;;;;;;34.43;17.67;;;;;;;;;;4970703;28;20121;-77
2022/10/21 06:22:16;;;;;;;30.30;15.50;;;;;;;;;;4974816;28;20749;-75
2022/10/21 06:24:41;;;;;;;31.87;16.77;;;;;;;;;;4972582;28;20054;-76
2022/10/21 06:27:07;;;;;;;37.50;15.80;;;;;;;;;;4974795;28;20624;-79
2022/10/21 06:29:33;;;;;;;33.90;16.27;;;;;;;;;;4972791;28;20018;-75
2022/10/21 06:31:58;;;;;;;32.83;17.47;;;;;;;;;;4968671;28;20146;-78
2022/10/21 06:34:24;;;;;;;31.57;15.50;;;;;;;;;;4964170;28;20027;-77
2022/10/21 06:36:49;;;;;;;32.80;17.00;;;;;;;;;;4972035;28;20502;-74
2022/10/21 06:39:15;;;;;;;32.60;16.20;;;;;;;;;;4972057;28;20467;-75
2022/10/21 06:41:40;;;;;;;34.15;16.55;;;;;;;;;;4971183;28;20042;-76
2022/10/21 06:44:06;;;;;;;34.53;15.97;;;;;;;;;;4968692;28;20031;-75
2022/10/21 06:46:33;;;;;;;33.63;15.40;;;;;;;;;;4962878;28;20045;-77
2022/10/21 06:48:59;;;;;;;33.50;16.50;;;;;;;;;;4974802;28;20038;-76
2022/10/21 06:51:25;;;;;;;30.20;15.65;;;;;;;;;;4970441;28;20041;-76
2022/10/21 06:53:55;;;;;;;31.33;14.18;;;;;;;;;;4970301;28;20054;-77
2022/10/21 06:56:21;;;;;;;31.85;16.80;;;;;;;;;;4971628;28;20865;-77
2022/10/21 06:58:48;;;;;;;31.83;16.20;;;;;;;;;;4975171;28;20023;-76
2022/10/21 07:01:18;;;;;;;42.85;18.20;;;;;;;;;;4968486;28;20030;-76
2022/10/21 07:03:43;;;;;;;58.63;31.15;;;;;;;;;;4972838;28;20033;-77
2022/10/21 07:06:09;;;;;;;31.45;15.00;;;;;;;;;;4973114;28;20038;-75
2022/10/21 07:08:36;;;;;;;30.27;13.15;;;;;;;;;;4970548;28;20118;-77
2022/10/21 07:11:03;;;;;;;25.80;13.82;;;;;;;;;;4973365;28;20045;-77
2022/10/21 07:13:28;;;;;;;31.25;14.00;;;;;;;;;;4970553;28;20022;-77
2022/10/21 07:16:28;;;;;;;26.67;12.93;;;;;;;;;;4971719;28;20049;-75
2022/10/21 07:18:55;;;;;;;29.02;14.55;;;;;;;;;;4969551;28;20039;-76
2022/10/21 07:21:22;;;;;;;29.73;12.98;;;;;;;;;;4974660;28;20178;-77
2022/10/21 07:23:51;;;;;;;32.33;14.60;;;;;;;;;;4972188;28;20035;-76
2022/10/21 07:26:18;;;;;;;26.45;15.10;;;;;;;;;;4969770;28;20061;-77
2022/10/21 07:28:46;;;;;;;26.00;14.73;;;;;;;;;;4975530;28;20034;-77
2022/10/21 07:31:13;;;;;;;36.38;18.75;;;;;;;;;;4974327;28;20076;-75
2022/10/21 07:33:39;;;;;;;26.20;14.40;;;;;;;;;;4972765;28;20065;-77
2022/10/21 07:36:11;;;;;;;36.17;15.63;;;;;;;;;;4970019;28;20387;-75
2022/10/21 07:38:38;;;;;;;25.30;14.52;;;;;;;;;;4952605;28;20126;-75
2022/10/21 07:41:04;;;;;;;27.55;14.20;;;;;;;;;;4970577;28;20825;-75
2022/10/21 07:43:30;;;;;;;29.20;14.68;;;;;;;;;;4970566;28;20033;-76
2022/10/21 07:45:57;;;;;;;25.42;13.05;;;;;;;;;;4971168;28;20034;-75
2022/10/21 07:48:23;;;;;;;24.08;12.07;;;;;;;;;;4973539;28;20060;-75
2022/10/21 07:50:49;;;;;;;21.10;12.25;;;;;;;;;;4970055;28;20891;-75
2022/10/21 07:53:15;;;;;;;22.63;11.90;;;;;;;;;;4970052;28;20097;-77
2022/10/21 07:55:41;;;;;;;22.80;11.77;;;;;;;;;;4972190;28;20368;-76
2022/10/21 07:58:06;;;;;;;20.98;11.75;;;;;;;;;;4972780;28;20041;-75
2022/10/21 08:00:32;;;;;;;20.77;11.52;;;;;;;;;;4975841;28;20108;-76
2022/10/21 08:02:58;;;;;;;17.25;10.20;;;;;;;;;;4967292;28;20033;-77
2022/10/21 08:05:24;;;;;;;20.17;11.27;;;;;;;;;;4974120;28;20096;-76
2022/10/21 08:07:50;;;;;;;22.88;12.25;;;;;;;;;;4971082;28;20081;-76
2022/10/21 08:10:16;;;;;;;23.85;10.95;;;;;;;;;;4974827;28;20034;-77
2022/10/21 08:12:41;;;;;;;25.88;11.27;;;;;;;;;;4969029;28;20190;-76
2022/10/21 08:15:07;;;;;;;24.90;10.50;;;;;;;;;;4973665;28;20034;-76
2022/10/21 08:17:33;;;;;;;24.98;11.50;;;;;;;;;;4974959;28;20046;-76
2022/10/21 08:19:58;;;;;;;19.35;11.68;;;;;;;;;;4952468;28;20027;-77
2022/10/21 08:22:24;;;;;;;17.90;10.80;;;;;;;;;;4966720;28;20038;-77
2022/10/21 08:24:49;;;;;;;21.25;10.73;;;;;;;;;;4974342;28;21098;-77
2022/10/21 08:27:16;;;;;;;23.50;10.50;;;;;;;;;;4971584;28;20026;-75
2022/10/21 08:29:41;;;;;;;22.52;10.95;;;;;;;;;;4939293;28;20064;-78
2022/10/21 08:32:07;;;;;;;17.80;11.13;;;;;;;;;;4973234;28;20026;-78
2022/10/21 08:34:34;;;;;;;28.50;11.90;;;;;;;;;;4974248;28;20030;-76
2022/10/21 08:37:00;;;;;;;23.98;11.93;;;;;;;;;;4970698;28;20037;-77
2022/10/21 08:39:26;;;;;;;21.73;10.85;;;;;;;;;;4970581;28;20057;-77
2022/10/21 08:42:14;;;;;;;23.95;11.88;;;;;;;;;;4972896;28;20034;-75
2022/10/21 08:45:06;;;;;;;21.90;12.77;;;;;;;;;;4988143;28;20487;-76
2022/10/21 08:47:44;;;;;;;17.25;10.43;;;;;;;;;;4975466;28;20117;-78
2022/10/21 08:50:12;;;;;;;19.13;11.23;;;;;;;;;;4974148;28;20117;-77
2022/10/21 08:52:40;;;;;;;19.02;11.95;;;;;;;;;;4969813;28;20038;-76
2022/10/21 08:55:18;;;;;;;20.60;10.05;;;;;;;;;;4986574;28;20034;-78
2022/10/21 08:57:46;;;;;;;22.27;9.93;;;;;;;;;;4972572;28;20041;-76
2022/10/21 09:00:21;;;;;;;20.63;10.88;;;;;;;;;;4989618;28;20018;-76
2022/10/21 09:02:46;;;;;;;19.67;9.93;;;;;;;;;;4988167;28;20648;-77
2022/10/21 09:06:02;;;;;;;22.98;11.52;;;;;;;;;;4975706;28;20037;-77
2022/10/21 09:09:02;;;;;;;17.42;10.45;;;;;;;;;;4907501;29;20036;-77
2022/10/21 09:11:42;;;;;;;17.10;11.27;;;;;;;;;;4904031;29;20865;-76
2022/10/21 09:14:20;;;;;;;20.52;11.30;;;;;;;;;;4982562;28;20037;-79
2022/10/21 09:17:03;;;;;;;19.73;9.57;;;;;;;;;;4973447;28;20033;-76
2022/10/21 09:19:37;;;;;;;16.67;10.15;;;;;;;;;;4969632;28;20062;-77
2022/10/21 09:22:05;;;;;;;14.85;9.05;;;;;;;;;;4973480;28;20061;-76
2022/10/21 09:24:31;;;;;;;19.27;9.88;;;;;;;;;;4976076;28;20030;-75
2022/10/21 09:26:57;;;;;;;14.30;9.10;;;;;;;;;;4972321;28;20049;-78
2022/10/21 09:29:43;;;;;;;14.50;9.50;;;;;;;;;;4974398;28;20658;-77
2022/10/21 09:32:22;;;;;;;16.35;9.52;;;;;;;;;;4967145;28;20038;-76
2022/10/21 09:34:53;;;;;;;18.30;9.45;;;;;;;;;;4987653;28;20121;-75
2022/10/21 09:37:25;;;;;;;17.15;9.85;;;;;;;;;;4976940;28;20063;-76
2022/10/21 09:40:00;;;;;;;;;;;;;;;;;;4988318;28;20030;-75
2022/10/21 09:42:26;;;;;;;20.67;9.65;;;;;;;;;;4969791;28;20587;-75
2022/10/21 09:44:51;;;;;;;16.67;10.18;;;;;;;;;;4971200;28;20049;-76
2022/10/21 09:47:21;;;;;;;17.13;11.38;;;;;;;;;;4968093;28;20030;-77
2022/10/21 09:49:51;;;;;;;19.75;10.63;;;;;;;;;;4988602;28;20517;-75
2022/10/21 09:52:19;;;;;;;22.77;10.38;;;;;;;;;;4955684;28;20077;-76
2022/10/21 09:54:46;;;;;;;14.02;9.43;;;;;;;;;;4988389;28;20104;-75
2022/10/21 09:57:53;;;;;;;16.88;9.55;;;;;;;;;;4969894;28;20121;-75
2022/10/21 10:00:18;;;;;;;16.15;8.95;;;;;;;;;;4885297;29;20039;-77
2022/10/21 10:02:45;;;;;;;19.92;9.35;;;;;;;;;;4899283;29;20036;-76
2022/10/21 10:05:32;;;;;;;15.40;8.88;;;;;;;;;;4887960;29;20186;-78
2022/10/21 10:07:58;;;;;;;26.90;16.08;;;;;;;;;;4902106;29;20220;-77
2022/10/21 10:10:30;;;;;;;17.38;9.27;;;;;;;;;;4887750;29;20055;-76
2022/10/21 10:12:58;;;;;;;17.83;10.35;;;;;;;;;;4975915;28;20049;-76
2022/10/21 10:15:36;;;;;;;15.65;8.48;;;;;;;;;;4971637;28;20042;-75
2022/10/21 10:18:03;;;;;;;18.95;10.10;;;;;;;;;;4940054;28;20048;-78
2022/10/21 10:20:31;;;;;;;16.70;8.65;;;;;;;;;;4971908;28;20021;-80
2022/10/21 10:22:57;;;;;;;14.57;8.23;;;;;;;;;;4989651;28;20074;-78
2022/10/21 10:25:28;;;;;;;15.80;8.15;;;;;;;;;;4969338;28;20089;-78
2022/10/21 10:28:16;;;;;;;16.38;9.05;;;;;;;;;;4971967;28;20042;-77
2022/10/21 10:30:42;;;;;;;19.83;9.27;;;;;;;;;;4968620;28;20121;-76
2022/10/21 10:33:14;;;;;;;13.90;8.93;;;;;;;;;;4966958;28;20026;-76
2022/10/21 10:35:48;;;;;;;18.77;9.00;;;;;;;;;;4971008;28;20037;-76
2022/10/21 10:38:51;;;;;;;19.65;8.98;;;;;;;;;;4973280;28;20100;-76
2022/10/21 10:41:28;;;;;;;22.40;9.55;;;;;;;;;;4972593;28;20423;-78
2022/10/21 10:43:55;;;;;;;15.52;9.23;;;;;;;;;;4969118;28;20134;-77
2022/10/21 10:46:30;;;;;;;15.40;8.75;;;;;;;;;;4971190;28;20085;-76
2022/10/21 10:49:03;;;;;;;17.58;9.10;;;;;;;;;;4971908;28;20116;-77
2022/10/21 10:51:33;;;;;;;17.38;9.73;;;;;;;;;;4968242;28;20992;-75
2022/10/21 10:54:27;;;;;;;17.80;8.88;;;;;;;;;;4965032;28;20039;-79
2022/10/21 10:57:08;;;;;;;21.23;9.65;;;;;;;;;;4966912;28;20104;-77
2022/10/21 10:59:41;;;;;;;17.20;10.00;;;;;;;;;;4968465;28;20023;-76
2022/10/21 11:02:20;;;;;;;13.85;8.82;;;;;;;;;;4967765;28;20030;-78
2022/10/21 11:05:19;;;;;;;18.23;8.15;;;;;;;;;;4970807;28;20030;-75
2022/10/21 11:07:49;;;;;;;21.65;8.90;;;;;;;;;;4969886;28;20455;-76
2022/10/21 11:10:25;;;;;;;16.90;9.88;;;;;;;;;;4970083;28;20034;-76
2022/10/21 11:12:52;;;;;;;10.98;8.00;;;;;;;;;;4965475;28;20066;-77
2022/10/21 11:15:22;;;;;;;12.18;7.85;;;;;;;;;;4968322;28;20038;-75
2022/10/21 11:18:20;;;;;;;12.57;8.45;;;;;;;;;;4959700;28;20045;-77
2022/10/21 11:21:14;;;;;;;15.52;8.20;;;;;;;;;;4947130;28;20245;-77
2022/10/21 11:24:18;;;;;;;16.00;8.40;;;;;;;;;;4961592;28;20526;-76
2022/10/21 11:26:59;;;;;;;11.70;7.18;;;;;;;;;;4994769;28;20034;-74
2022/10/21 11:29:39;;;;;;;14.82;9.23;;;;;;;;;;4968842;28;20040;-75
2022/10/21 11:32:22;;;;;;;11.48;8.52;;;;;;;;;;4967103;28;20069;-76
2022/10/21 11:34:58;;;;;;;23.45;10.95;;;;;;;;;;4984029;28;20060;-75
2022/10/21 11:37:33;;;;;;;19.42;10.32;;;;;;;;;;4970074;28;20034;-76
2022/10/21 11:40:28;;;;;;;12.07;8.13;;;;;;;;;;4970723;28;20022;-76
2022/10/21 11:42:58;;;;;;;15.57;8.45;;;;;;;;;;4879130;29;20622;-77
2022/10/21 11:45:29;;;;;;;19.40;11.55;;;;;;;;;;4973778;28;20070;-77
2022/10/21 11:48:21;;;;;;;18.15;9.05;;;;;;;;;;4956839;28;20034;-77
2022/10/21 11:51:17;;;;;;;15.10;8.95;;;;;;;;;;4989587;28;20096;-75
2022/10/21 11:54:16;;;;;;;15.55;9.18;;;;;;;;;;4975166;28;20026;-76
2022/10/21 11:56:52;;;;;;;13.23;8.32;;;;;;;;;;4965682;28;20046;-77
2022/10/21 11:59:57;;;;;;;18.98;9.80;;;;;;;;;;4970745;28;20451;-76
2022/10/21 12:02:41;;;;;;;19.50;9.15;;;;;;;;;;4969995;28;20041;-77
2022/10/21 12:05:22;;;;;;;14.95;7.95;;;;;;;;;;4992096;28;20014;-78
2022/10/21 12:07:57;;;;;;;22.55;9.35;;;;;;;;;;4969848;28;20026;-77
2022/10/21 12:10:34;;;;;;;15.93;8.50;;;;;;;;;;4992209;28;20497;-78
2022/10/21 12:13:18;;;;;;;19.55;9.10;;;;;;;;;;4974401;28;20755;-76
2022/10/21 12:16:13;;;;;;;16.80;9.57;;;;;;;;;;4975092;28;20041;-78
2022/10/21 12:18:54;;;;;;;15.98;8.15;;;;;;;;;;4969255;28;20121;-75
2022/10/21 12:21:24;;;;;;;22.10;10.03;;;;;;;;;;4974361;28;20034;-77
2022/10/21 12:23:57;;;;;;;17.08;9.07;;;;;;;;;;4991035;28;20034;-76
2022/10/21 12:26:36;;;;;;;16.50;9.00;;;;;;;;;;4973882;28;20050;-76
2022/10/21 12:29:23;;;;;;;16.60;8.82;;;;;;;;;;4992136;28;20018;-76
2022/10/21 12:32:10;;;;;;;31.15;10.95;;;;;;;;;;4990308;28;20056;-76
2022/10/21 12:34:36;;;;;;;14.48;8.93;;;;;;;;;;4957074;28;20131;-77
2022/10/21 12:37:01;;;;;;;14.90;9.80;;;;;;;;;;4971445;28;20026;-76
2022/10/21 12:39:33;;;;;;;15.80;9.50;;;;;;;;;;4983513;28;20080;-75
2022/10/21 12:42:14;;;;;;;18.67;9.57;;;;;;;;;;4969620;28;20038;-76
2022/10/21 12:44:49;;;;;;;14.10;9.30;;;;;;;;;;4987468;28;20491;-76
2022/10/21 12:47:27;;;;;;;20.30;9.63;;;;;;;;;;4976921;28;20372;-77
2022/10/21 12:50:30;;;;;;;23.63;10.98;;;;;;;;;;4970138;28;20472;-77
2022/10/21 12:53:19;;;;;;;16.25;10.32;;;;;;;;;;4952250;28;20439;-77
2022/10/21 12:55:53;;;;;;;14.32;9.35;;;;;;;;;;4957611;28;20033;-77
2022/10/21 12:58:29;;;;;;;17.33;9.32;;;;;;;;;;4956203;28;20125;-76
2022/10/21 13:00:56;;;;;;;20.85;11.07;;;;;;;;;;4972971;28;20093;-76
2022/10/21 13:03:45;;;;;;;17.45;9.95;;;;;;;;;;4991748;28;20073;-78
2022/10/21 13:06:12;;;;;;;15.73;9.57;;;;;;;;;;4962912;28;20037;-76
2022/10/21 13:09:02;;;;;;;20.70;10.50;;;;;;;;;;4991505;28;20073;-76
2022/10/21 13:11:38;;;;;;;21.90;11.15;;;;;;;;;;4961169;28;20046;-78
2022/10/21 13:14:16;;;;;;;18.02;10.10;;;;;;;;;;4973709;28;20034;-76
2022/10/21 13:16:42;;;;;;;20.45;11.30;;;;;;;;;;4970893;28;20058;-78
2022/10/21 13:19:13;;;;;;;21.60;10.68;;;;;;;;;;4952721;28;20041;-77
2022/10/21 13:21:59;;;;;;;19.10;11.13;;;;;;;;;;4978288;28;20105;-77
2022/10/21 13:24:32;;;;;;;21.08;10.80;;;;;;;;;;4989796;28;20107;-81
2022/10/21 13:27:01;;;;;;;24.92;11.90;;;;;;;;;;4957649;28;20551;-76
2022/10/21 13:29:46;;;;;;;23.08;12.23;;;;;;;;;;4953692;28;20081;-77
2022/10/21 13:32:37;;;;;;;20.45;11.73;;;;;;;;;;4954766;28;20023;-76
2022/10/21 13:35:27;;;;;;;22.98;11.60;;;;;;;;;;4971646;28;20060;-77
2022/10/21 13:38:00;;;;;;;24.77;11.85;;;;;;;;;;4969947;28;20034;-76
2022/10/21 13:40:34;;;;;;;22.73;12.23;;;;;;;;;;4962337;28;20034;-77
2022/10/21 13:43:05;;;;;;;18.42;11.68;;;;;;;;;;4963546;28;20435;-77
2022/10/21 13:45:44;;;;;;;28.10;12.27;;;;;;;;;;4962387;28;20386;-77
2022/10/21 13:48:23;;;;;;;18.08;11.70;;;;;;;;;;4990560;28;20502;-78
2022/10/21 13:50:52;;;;;;;21.92;11.75;;;;;;;;;;4937397;28;20046;-76
2022/10/21 13:53:17;;;;;;;22.67;12.45;;;;;;;;;;4975750;28;20041;-78
2022/10/21 13:56:06;;;;;;;27.40;15.85;;;;;;;;;;4972766;28;20030;-78
2022/10/21 13:58:38;;;;;;;24.30;14.32;;;;;;;;;;4955954;28;20097;-76
2022/10/21 14:01:13;;;;;;;22.98;11.98;;;;;;;;;;4971869;28;20037;-76
2022/10/21 14:03:41;;;;;;;19.98;12.60;;;;;;;;;;4971963;28;20472;-77
2022/10/21 14:06:08;;;;;;;20.73;11.95;;;;;;;;;;4954339;28;20022;-76
2022/10/21 14:08:47;;;;;;;23.50;12.18;;;;;;;;;;4953671;28;20518;-76
2022/10/21 14:11:22;;;;;;;26.13;14.38;;;;;;;;;;4970129;28;20030;-77
2022/10/21 14:13:50;;;;;;;23.52;13.15;;;;;;;;;;4953393;28;20478;-76
2022/10/21 14:16:47;;;;;;;23.00;12.93;;;;;;;;;;4953544;28;20074;-76
2022/10/21 14:19:25;;;;;;;22.85;13.02;;;;;;;;;;4953475;28;20089;-76
2022/10/21 14:21:55;;;;;;;25.08;13.38;;;;;;;;;;4953269;28;20065;-76
2022/10/21 14:24:40;;;;;;;23.40;12.80;;;;;;;;;;4953679;28;20088;-76
2022/10/21 14:27:11;;;;;;;25.13;13.45;;;;;;;;;;4953926;28;20026;-76
2022/10/21 14:29:37;;;;;;;26.15;12.75;;;;;;;;;;4971206;28;20332;-77
2022/10/21 14:32:04;;;;;;;22.48;12.30;;;;;;;;;;4970588;28;20042;-76
2022/10/21 14:34:34;;;;;;;23.17;12.40;;;;;;;;;;4937924;28;20026;-78
2022/10/21 14:37:20;;;;;;;26.98;15.25;;;;;;;;;;4953198;28;20031;-76
2022/10/21 14:39:45;;;;;;;28.33;14.60;;;;;;;;;;4971362;28;20042;-76
2022/10/21 14:42:20;;;;;;;26.88;13.82;;;;;;;;;;4953817;28;20026;-77
2022/10/21 14:44:49;;;;;;;21.25;13.20;;;;;;;;;;4953558;28;20134;-76
2022/10/21 14:47:22;;;;;;;23.60;13.48;;;;;;;;;;4971169;28;20027;-76